Time;durP1;ratioP1;P1;durP2;ratioP2;P2;SDS_P1;SDS_P2;PMS_P1;PMS_P2;Temp;Humidity;BMP_temperature;BMP_pressure;BME280_temperature;BME280_humidity;BME280_pressure;Samples;Min_cycle;Max_cycle;Signal;HPM_P1;HPM_P2
2023/08/06 00:03:21;;;;;;;9.30;4.97;;;;;;;12.74;100.00;100191.41;10434149;28;20052;-80
2023/08/06 00:08:21;;;;;;;9.15;4.47;;;;;;;12.78;100.00;100174.91;10434277;28;20489;-80
2023/08/06 00:13:22;;;;;;;7.18;4.50;;;;;;;12.83;100.00;100179.38;10434613;28;20037;-80
2023/08/06 00:18:22;;;;;;;8.68;4.82;;;;;;;12.76;100.00;100178.31;10473711;28;20051;-80
2023/08/06 00:23:23;;;;;;;11.15;3.92;;;;;;;12.72;100.00;100163.31;10442012;28;20486;-80
2023/08/06 00:28:23;;;;;;;6.10;3.33;;;;;;;12.69;100.00;100174.63;10448961;28;20060;-80
2023/08/06 00:33:24;;;;;;;8.30;4.25;;;;;;;12.66;100.00;100161.44;10439887;28;20420;-80
2023/08/06 00:38:24;;;;;;;7.95;4.95;;;;;;;12.70;100.00;100157.13;10439898;28;20037;-79
2023/08/06 00:43:25;;;;;;;7.45;4.68;;;;;;;12.66;100.00;100156.19;10421805;28;20040;-79
2023/08/06 00:48:25;;;;;;;8.60;4.63;;;;;;;12.60;100.00;100141.13;10446330;28;20124;-80
2023/08/06 00:53:26;;;;;;;5.68;4.03;;;;;;;12.45;100.00;100138.06;10445834;28;20064;-80
2023/08/06 00:58:26;;;;;;;12.05;4.78;;;;;;;12.33;100.00;100142.13;10443277;28;20166;-80
2023/08/06 01:03:27;;;;;;;8.88;4.43;;;;;;;12.21;100.00;100151.38;10435984;28;20431;-79
2023/08/06 01:08:30;;;;;;;7.60;3.22;;;;;;;12.12;100.00;100144.13;10479842;28;20053;-81
2023/08/06 01:13:47;;;;;;;6.15;3.58;;;;;;;12.04;100.00;100142.16;10445107;28;20400;-80
2023/08/06 01:18:49;;;;;;;9.27;3.58;;;;;;;12.02;100.00;100142.97;10423801;28;20044;-80
2023/08/06 01:23:49;;;;;;;7.10;3.58;;;;;;;11.92;100.00;100141.75;10443049;28;20414;-80
2023/08/06 01:29:08;;;;;;;10.20;4.63;;;;;;;11.87;100.00;100145.97;10458742;28;20045;-79
2023/08/06 01:34:11;;;;;;;9.88;4.72;;;;;;;11.90;100.00;100149.59;10443652;28;20037;-79
2023/08/06 01:39:11;;;;;;;8.63;4.22;;;;;;;11.93;100.00;100148.78;10419725;28;20408;-79
2023/08/06 01:44:12;;;;;;;7.57;4.25;;;;;;;12.00;100.00;100144.66;10426819;28;20040;-79
2023/08/06 01:49:12;;;;;;;7.65;3.80;;;;;;;12.10;100.00;100145.81;10445220;28;20064;-79
2023/08/06 01:54:13;;;;;;;9.07;4.30;;;;;;;12.14;100.00;100150.31;10443311;28;20041;-79
2023/08/06 01:59:13;;;;;;;10.07;4.20;;;;;;;12.21;100.00;100140.91;10441419;28;20051;-79
2023/08/06 02:04:14;;;;;;;8.95;4.75;;;;;;;12.25;100.00;100146.25;10444758;28;20037;-80
2023/08/06 02:09:14;;;;;;;8.25;4.68;;;;;;;12.21;100.00;100138.28;10443928;28;20388;-80
2023/08/06 02:14:15;;;;;;;7.53;4.00;;;;;;;12.19;100.00;100140.84;10436889;28;20049;-80
2023/08/06 02:19:15;;;;;;;7.35;4.55;;;;;;;12.23;100.00;100136.59;10425056;28;20087;-80
2023/08/06 02:24:16;;;;;;;10.15;4.85;;;;;;;12.32;100.00;100140.34;10442370;28;20052;-80
2023/08/06 02:29:17;;;;;;;6.20;3.70;;;;;;;12.44;100.00;100129.34;10444123;28;20032;-80
2023/08/06 02:34:18;;;;;;;7.13;5.20;;;;;;;12.50;100.00;100123.34;10424750;28;20071;-80
2023/08/06 02:39:19;;;;;;;7.30;4.20;;;;;;;12.58;100.00;100113.94;10425573;28;20055;-80
2023/08/06 02:44:19;;;;;;;7.10;4.38;;;;;;;12.64;100.00;100108.00;10438444;28;20424;-80
2023/08/06 02:49:20;;;;;;;6.50;3.92;;;;;;;12.69;100.00;100101.13;10423202;28;20053;-80
2023/08/06 02:54:20;;;;;;;9.20;4.95;;;;;;;12.73;100.00;100092.50;10434280;28;20068;-80
2023/08/06 02:59:21;;;;;;;7.88;3.65;;;;;;;12.77;100.00;100096.06;10443183;28;20120;-80
2023/08/06 03:04:21;;;;;;;8.20;3.75;;;;;;;12.80;100.00;100090.03;10441694;28;20087;-80
2023/08/06 03:09:22;;;;;;;8.93;4.22;;;;;;;12.82;100.00;100086.56;10423740;28;20477;-80
2023/08/06 03:14:22;;;;;;;7.72;3.78;;;;;;;12.89;100.00;100085.00;10441109;28;20170;-79
2023/08/06 03:19:23;;;;;;;8.38;4.32;;;;;;;12.88;100.00;100077.97;10474697;28;20098;-79
2023/08/06 03:24:24;;;;;;;7.68;4.35;;;;;;;12.82;100.00;100083.94;10441769;28;20111;-79
2023/08/06 03:29:24;;;;;;;6.68;2.97;;;;;;;12.81;100.00;100083.94;10438032;28;20056;-79
2023/08/06 03:34:24;;;;;;;8.30;3.90;;;;;;;12.78;100.00;100084.72;10443008;28;20040;-78
2023/08/06 03:39:25;;;;;;;7.15;3.40;;;;;;;12.76;100.00;100082.06;10431495;28;20061;-79
2023/08/06 03:44:28;;;;;;;8.00;4.03;;;;;;;12.78;100.00;100089.97;10434542;28;20112;-79
2023/08/06 03:49:28;;;;;;;8.80;4.40;;;;;;;12.80;100.00;100077.78;10440814;28;20485;-77
2023/08/06 03:54:29;;;;;;;7.88;4.13;;;;;;;12.77;100.00;100072.44;10454793;28;20059;-78
2023/08/06 03:59:30;;;;;;;8.07;4.30;;;;;;;12.78;100.00;100077.75;10438620;28;20049;-78
2023/08/06 04:04:31;;;;;;;6.82;4.13;;;;;;;12.80;100.00;100075.13;10415806;28;20037;-78
2023/08/06 04:09:31;;;;;;;10.93;4.05;;;;;;;12.83;100.00;100077.84;10439121;28;20466;-78
2023/08/06 04:14:32;;;;;;;9.00;4.00;;;;;;;12.85;100.00;100081.41;10439904;28;20041;-78
2023/08/06 04:19:32;;;;;;;8.75;4.43;;;;;;;12.87;100.00;100089.34;10441521;28;20029;-78
2023/08/06 04:24:33;;;;;;;8.60;4.18;;;;;;;12.88;100.00;100088.47;10447825;28;20504;-77
2023/08/06 04:29:33;;;;;;;7.20;3.85;;;;;;;12.94;100.00;100086.00;10444135;28;20098;-77
2023/08/06 04:34:34;;;;;;;8.30;3.13;;;;;;;13.00;100.00;100090.53;10446456;28;20562;-77
2023/08/06 04:39:35;;;;;;;6.03;3.03;;;;;;;13.05;100.00;100094.16;10428855;28;20099;-77
2023/08/06 04:44:35;;;;;;;5.57;3.15;;;;;;;13.06;100.00;100096.84;10446885;28;20090;-77
2023/08/06 04:49:36;;;;;;;4.95;2.35;;;;;;;13.10;100.00;100095.16;10447793;28;20049;-78
2023/08/06 04:54:37;;;;;;;5.43;2.03;;;;;;;13.13;100.00;100102.25;10447361;28;20049;-76
2023/08/06 04:59:37;;;;;;;3.97;2.25;;;;;;;13.17;100.00;100102.34;10447738;28;20037;-76
2023/08/06 05:04:38;;;;;;;5.65;2.38;;;;;;;13.17;100.00;100107.59;10446464;28;20492;-77
2023/08/06 05:09:38;;;;;;;4.00;2.70;;;;;;;13.16;100.00;100107.56;10441686;28;20082;-77
2023/08/06 05:14:39;;;;;;;7.63;2.97;;;;;;;13.16;100.00;100108.44;10439837;28;20037;-77
2023/08/06 05:19:39;;;;;;;7.05;2.85;;;;;;;13.24;100.00;100121.78;10426532;28;20037;-79
2023/08/06 05:24:40;;;;;;;4.43;2.70;;;;;;;13.27;100.00;100123.59;10444641;28;20420;-78
2023/08/06 05:29:40;;;;;;;3.67;2.17;;;;;;;13.32;100.00;100127.22;10426051;28;20033;-76
2023/08/06 05:34:44;;;;;;;6.53;2.13;;;;;;;13.29;100.00;100129.75;10441606;28;20033;-75
2023/08/06 05:39:44;;;;;;;5.28;3.00;;;;;;;13.37;100.00;100138.72;10446676;28;20512;-76
2023/08/06 05:44:45;;;;;;;4.07;3.03;;;;;;;13.42;100.00;100149.41;10445280;28;20049;-77
2023/08/06 05:49:45;;;;;;;6.43;2.80;;;;;;;13.47;100.00;100153.03;10443319;28;20127;-78
2023/08/06 05:54:46;;;;;;;10.75;2.58;;;;;;;13.50;100.00;100161.00;10451108;28;20029;-75
2023/08/06 05:59:46;;;;;;;7.03;2.33;;;;;;;13.51;100.00;100165.41;10441131;28;20131;-77
2023/08/06 06:04:47;;;;;;;4.97;2.97;;;;;;;13.48;100.00;100167.97;10442145;28;20148;-77
2023/08/06 06:09:47;;;;;;;4.30;2.50;;;;;;;13.50;100.00;100172.38;10441545;28;20045;-78
2023/08/06 06:14:48;;;;;;;5.05;2.95;;;;;;;13.53;100.00;100181.19;10427038;28;20171;-75
2023/08/06 06:19:48;;;;;;;4.97;1.88;;;;;;;13.51;100.00;100189.94;10442630;28;20041;-77
2023/08/06 06:24:49;;;;;;;8.07;2.90;;;;;;;13.49;100.00;100196.03;10441129;28;20040;-76
2023/08/06 06:29:49;;;;;;;7.15;2.03;;;;;;;13.51;100.00;100199.56;10442692;28;20049;-78
2023/08/06 06:34:50;;;;;;;4.05;1.98;;;;;;;13.60;100.00;100202.44;10428718;28;20152;-82
2023/08/06 06:39:50;;;;;;;6.93;1.60;;;;;;;13.70;100.00;100216.69;10438715;28;20400;-78
2023/08/06 06:44:51;;;;;;;23.35;14.82;;;;;;;13.73;100.00;100229.91;10441913;28;20072;-77
2023/08/06 06:49:52;;;;;;;7.70;2.03;;;;;;;13.64;100.00;100233.22;10443622;28;20041;-77
2023/08/06 06:54:52;;;;;;;2.50;1.30;;;;;;;13.65;100.00;100237.63;10398288;28;20073;-77
2023/08/06 06:59:53;;;;;;;9.23;2.95;;;;;;;13.68;100.00;100243.81;10439052;28;20045;-80
2023/08/06 07:04:53;;;;;;;5.85;2.42;;;;;;;13.77;100.00;100244.91;10440647;28;20083;-78
2023/08/06 07:09:54;;;;;;;4.07;2.10;;;;;;;13.97;100.00;100248.88;10443616;28;20045;-78
2023/08/06 07:14:55;;;;;;;3.17;1.83;;;;;;;14.13;100.00;100260.66;10436844;28;20576;-76
2023/08/06 07:19:55;;;;;;;3.53;2.00;;;;;;;14.27;100.00;100258.34;10425673;28;20048;-76
2023/08/06 07:24:56;;;;;;;5.13;2.45;;;;;;;14.40;100.00;100255.13;10440866;28;20033;-78
2023/08/06 07:29:58;;;;;;;6.53;4.07;;;;;;;14.65;100.00;100264.44;10440501;28;20102;-76
2023/08/06 07:35:00;;;;;;;6.10;3.80;;;;;;;14.94;100.00;100280.00;10438801;28;20381;-77
2023/08/06 07:40:00;;;;;;;11.05;4.40;;;;;;;15.57;100.00;100279.44;10440152;28;20135;-76
2023/08/06 07:45:01;;;;;;;6.95;4.28;;;;;;;15.90;100.00;100265.06;10437641;28;20114;-77
2023/08/06 07:50:02;;;;;;;6.13;4.25;;;;;;;16.11;100.00;100261.88;10392163;28;20045;-77
2023/08/06 07:55:04;;;;;;;6.65;4.05;;;;;;;16.16;100.00;100243.47;10435702;28;20485;-77
2023/08/06 08:00:05;;;;;;;8.82;4.15;;;;;;;16.54;100.00;100240.50;10442610;28;20109;-77
2023/08/06 08:05:08;;;;;;;8.18;3.83;;;;;;;16.26;100.00;100237.47;10437698;28;20033;-77
2023/08/06 08:10:08;;;;;;;;;;;;;;;16.24;100.00;100255.03;10438739;28;20401;-76
2023/08/06 08:15:09;;;;;;;6.70;4.10;;;;;;;15.91;100.00;100271.22;10473131;28;19920;-77
2023/08/06 08:20:10;;;;;;;4.43;2.38;;;;;;;15.18;100.00;100297.16;10440963;28;20037;-77
2023/08/06 08:25:10;;;;;;;2.95;1.80;;;;;;;14.37;100.00;100302.44;10438920;28;20033;-77
2023/08/06 08:30:11;;;;;;;1.70;1.48;;;;;;;13.91;100.00;100325.91;10437956;28;20049;-78
2023/08/06 08:35:12;;;;;;;6.60;2.42;;;;;;;13.51;100.00;100355.56;10436616;28;20051;-78
2023/08/06 08:40:14;;;;;;;4.87;3.67;;;;;;;13.47;100.00;100372.09;10407685;28;20051;-78
2023/08/06 08:45:14;;;;;;;9.80;8.88;;;;;;;13.42;100.00;100364.94;10438745;28;20047;-77
2023/08/06 08:50:15;;;;;;;5.45;4.45;;;;;;;13.51;100.00;100373.97;10419182;28;20045;-77
2023/08/06 08:55:16;;;;;;;4.75;3.35;;;;;;;13.34;100.00;100383.06;10421681;28;20051;-77
2023/08/06 09:00:17;;;;;;;6.88;4.18;;;;;;;13.25;100.00;100383.72;10433657;28;20041;-76
2023/08/06 09:05:18;;;;;;;6.22;3.88;;;;;;;13.12;100.00;100385.06;10448657;28;20124;-78
2023/08/06 09:10:18;;;;;;;6.40;3.70;;;;;;;13.00;100.00;100400.47;10429575;28;22242;-76
2023/08/06 09:15:20;;;;;;;7.15;5.13;;;;;;;13.05;100.00;100412.91;10440183;28;20443;-76
2023/08/06 09:20:20;;;;;;;6.73;5.07;;;;;;;13.07;100.00;100418.19;10433863;28;20125;-76
2023/08/06 09:25:23;;;;;;;5.45;3.17;;;;;;;13.03;100.00;100433.00;10432563;28;20539;-76
2023/08/06 09:30:35;;;;;;;7.18;4.03;;;;;;;13.00;100.00;100442.50;10419367;28;20048;-76
2023/08/06 09:35:35;;;;;;;9.03;4.87;;;;;;;12.95;100.00;100442.38;10454892;28;20045;-76
2023/08/06 09:40:36;;;;;;;11.25;4.93;;;;;;;12.95;100.00;100452.88;10439849;28;20037;-80
2023/08/06 09:45:37;;;;;;;9.57;5.32;;;;;;;12.95;100.00;100455.50;10429798;28;20171;-77
2023/08/06 09:50:38;;;;;;;8.13;4.05;;;;;;;13.21;100.00;100472.06;10437292;28;20048;-76
2023/08/06 09:55:39;;;;;;;10.82;6.25;;;;;;;13.38;100.00;100476.94;10420319;28;20041;-79
2023/08/06 10:00:39;;;;;;;7.47;5.15;;;;;;;13.52;100.00;100480.03;10441124;28;20056;-78
2023/08/06 10:05:40;;;;;;;11.38;6.28;;;;;;;13.70;100.00;100482.28;10407041;28;20061;-76
2023/08/06 10:10:41;;;;;;;13.85;6.65;;;;;;;13.97;100.00;100481.28;10443764;28;20120;-75
2023/08/06 10:15:41;;;;;;;12.40;7.05;;;;;;;14.15;100.00;100474.72;10420969;28;20108;-75
2023/08/06 10:20:42;;;;;;;16.83;5.22;;;;;;;14.26;100.00;100469.75;10433807;28;20507;-76
2023/08/06 10:25:42;;;;;;;14.98;6.60;;;;;;;14.16;100.00;100461.63;10462330;28;20450;-76
2023/08/06 10:30:47;;;;;;;11.82;4.20;;;;;;;14.56;100.00;100467.00;10469851;28;20041;-76
2023/08/06 10:35:49;;;;;;;13.85;2.90;;;;;;;15.12;100.00;100456.09;10465947;28;20045;-75
2023/08/06 10:40:52;;;;;;;;;;;;;;;16.09;100.00;100429.03;10482795;28;20063;-76
2023/08/06 10:45:53;;;;;;;6.10;1.67;;;;;;;16.93;100.00;100420.69;10476756;28;19927;-76
2023/08/06 10:50:53;;;;;;;16.83;4.15;;;;;;;17.09;100.00;100427.13;10497435;28;20047;-76
2023/08/06 10:55:54;;;;;;;6.15;1.80;;;;;;;17.13;100.00;100444.81;10466380;28;20178;-76
2023/08/06 11:00:55;;;;;;;4.03;2.03;;;;;;;16.67;100.00;100452.00;10467359;28;20029;-75
2023/08/06 11:05:56;;;;;;;6.63;2.63;;;;;;;16.58;100.00;100458.00;10427079;28;20041;-78
2023/08/06 11:11:08;;;;;;;5.55;2.40;;;;;;;16.41;100.00;100474.47;10441020;28;20108;-80
2023/08/06 11:16:09;;;;;;;3.90;1.43;;;;;;;16.46;100.00;100482.47;10450481;28;20540;-76
2023/08/06 11:21:09;;;;;;;6.75;1.85;;;;;;;16.31;100.00;100498.94;10437523;28;20428;-77
2023/08/06 11:26:10;;;;;;;10.15;6.32;;;;;;;16.01;100.00;100508.06;10433599;28;20055;-76
2023/08/06 11:31:21;;;;;;;5.43;2.47;;;;;;;15.81;100.00;100526.97;10412796;28;20116;-77
2023/08/06 11:36:31;;;;;;;6.37;3.83;;;;;;;15.67;100.00;100541.63;10436871;28;20040;-78
2023/08/06 11:41:32;;;;;;;4.63;3.45;;;;;;;15.89;100.00;100552.66;10426455;28;20037;-78
2023/08/06 11:46:55;;;;;;;5.07;3.13;;;;;;;15.76;100.00;100540.94;10418387;28;20037;-80
2023/08/06 11:51:56;;;;;;;8.52;5.72;;;;;;;15.79;100.00;100549.81;10436276;28;20049;-82
2023/08/06 11:56:57;;;;;;;7.28;3.67;;;;;;;15.82;100.00;100554.28;10431154;28;20234;-77
2023/08/06 12:01:57;;;;;;;9.52;4.10;;;;;;;15.94;100.00;100561.56;10439240;28;20240;-79
2023/08/06 12:07:09;;;;;;;7.72;5.53;;;;;;;16.17;100.00;100556.78;10438435;28;20492;-79
2023/08/06 12:12:10;;;;;;;;;;;;;;;16.50;100.00;100544.16;10478449;28;20749;-77
2023/08/06 12:17:10;;;;;;;6.75;3.33;;;;;;;16.05;100.00;100541.56;10480008;28;19920;-79
2023/08/06 12:22:11;;;;;;;16.80;8.80;;;;;;;15.64;100.00;100565.28;10468135;28;20041;-79
2023/08/06 12:27:11;;;;;;;12.48;5.43;;;;;;;15.59;100.00;100590.69;10464050;28;20119;-78
2023/08/06 12:32:12;;;;;;;8.95;4.55;;;;;;;15.82;100.00;100586.81;10436453;28;20037;-79
2023/08/06 12:37:12;;;;;;;11.98;4.32;;;;;;;16.64;100.00;100573.50;10437800;28;20043;-79
2023/08/06 12:42:13;;;;;;;9.00;4.03;;;;;;;16.96;100.00;100547.59;10430946;28;20134;-77
2023/08/06 12:47:16;;;;;;;6.40;3.65;;;;;;;17.13;100.00;100550.56;10442976;28;20122;-79
2023/08/06 12:52:17;;;;;;;13.10;4.10;;;;;;;17.48;100.00;100543.13;10446661;28;20170;-78
2023/08/06 12:57:17;;;;;;;8.23;3.03;;;;;;;17.62;100.00;100549.50;10442930;28;20053;-78
2023/08/06 13:02:18;;;;;;;7.18;4.53;;;;;;;16.96;100.00;100563.47;10435371;28;20390;-78
2023/08/06 13:07:19;;;;;;;9.73;2.45;;;;;;;16.65;100.00;100591.13;10442633;28;20049;-79
2023/08/06 13:12:22;;;;;;;5.63;1.83;;;;;;;16.69;100.00;100582.38;10429348;28;20131;-79
2023/08/06 13:17:23;;;;;;;3.97;1.20;;;;;;;16.70;100.00;100589.44;10477618;28;21916;-81
2023/08/06 13:22:24;;;;;;;12.80;4.25;;;;;;;16.68;100.00;100605.25;10473951;28;20448;-78
2023/08/06 13:27:24;;;;;;;7.78;2.47;;;;;;;16.41;100.00;100609.16;10464821;28;20036;-80
2023/08/06 13:32:25;;;;;;;8.15;2.20;;;;;;;16.50;100.00;100604.91;10439417;28;20033;-81
2023/08/06 13:37:26;;;;;;;6.95;3.15;;;;;;;17.15;100.00;100599.06;10407467;28;20051;-80
2023/08/06 13:42:26;;;;;;;4.97;1.38;;;;;;;17.50;100.00;100599.59;10417550;28;20120;-80
2023/08/06 13:47:27;;;;;;;6.53;1.83;;;;;;;17.51;100.00;100602.25;10431227;28;20053;-80
2023/08/06 13:52:27;;;;;;;3.42;1.58;;;;;;;17.03;100.00;100602.38;10442994;28;20040;-82
2023/08/06 13:57:28;;;;;;;4.45;1.45;;;;;;;17.31;100.00;100616.06;10424590;28;20049;-80
2023/08/06 14:02:29;;;;;;;8.05;2.63;;;;;;;17.27;100.00;100624.81;10422139;28;20477;-79
2023/08/06 14:07:29;;;;;;;7.38;2.03;;;;;;;16.91;100.00;100641.78;10408033;28;20516;-79
2023/08/06 14:12:31;;;;;;;12.77;3.45;;;;;;;16.64;100.00;100640.41;10438422;28;20063;-79
2023/08/06 14:17:31;;;;;;;8.10;3.53;;;;;;;16.52;100.00;100643.72;10440472;28;20037;-79
2023/08/06 14:22:32;;;;;;;3.42;1.83;;;;;;;16.53;100.00;100649.88;10443093;28;20032;-78
2023/08/06 14:27:32;;;;;;;3.50;1.52;;;;;;;16.38;100.00;100661.91;10438080;28;20127;-79
2023/08/06 14:32:33;;;;;;;4.55;1.63;;;;;;;15.99;100.00;100668.13;10421394;28;20037;-79
2023/08/06 14:37:33;;;;;;;6.57;2.10;;;;;;;15.63;100.00;100675.22;10406526;28;20049;-78
2023/08/06 14:42:34;;;;;;;12.32;3.75;;;;;;;15.64;100.00;100681.38;10460323;28;20060;-79
2023/08/06 14:47:34;;;;;;;7.57;2.22;;;;;;;15.60;100.00;100690.97;10474766;28;20129;-78
2023/08/06 14:52:36;;;;;;;11.63;4.63;;;;;;;15.61;100.00;100692.75;10468657;28;20125;-78
2023/08/06 14:57:36;;;;;;;8.18;3.95;;;;;;;15.40;100.00;100704.56;10475685;28;20408;-77
2023/08/06 15:02:37;;;;;;;7.82;3.72;;;;;;;15.42;100.00;100715.13;10466869;28;20067;-80
2023/08/06 15:07:37;;;;;;;5.53;2.15;;;;;;;15.35;100.00;100706.19;10482578;28;20147;-79
2023/08/06 15:12:39;;;;;;;7.75;3.17;;;;;;;15.30;100.00;100712.19;10482312;28;20036;-79
2023/08/06 15:17:39;;;;;;;8.07;3.58;;;;;;;15.30;100.00;100704.25;10477354;28;20029;-80
2023/08/06 15:22:40;;;;;;;4.93;3.25;;;;;;;15.14;100.00;100724.97;10422688;28;20051;-78
2023/08/06 15:27:40;;;;;;;7.32;2.03;;;;;;;15.01;100.00;100738.66;10430899;28;20048;-80
2023/08/06 15:32:44;;;;;;;4.10;1.90;;;;;;;14.90;100.00;100749.78;10471555;28;20115;-80
2023/08/06 15:37:44;;;;;;;17.98;3.33;;;;;;;14.72;100.00;100754.53;10464712;28;20040;-79
2023/08/06 15:42:45;;;;;;;10.38;3.78;;;;;;;14.56;100.00;100753.19;10468459;28;20048;-80
2023/08/06 15:47:45;;;;;;;14.10;3.05;;;;;;;14.46;100.00;100778.31;10404262;28;20033;-78
2023/08/06 15:52:46;;;;;;;14.88;5.40;;;;;;;14.09;100.00;100818.44;10433749;28;20033;-75
2023/08/06 15:57:46;;;;;;;6.18;2.47;;;;;;;13.73;100.00;100829.53;10433697;28;20449;-78
2023/08/06 16:02:47;;;;;;;6.82;2.35;;;;;;;13.44;100.00;100831.16;10426670;28;20049;-77
2023/08/06 16:07:50;;;;;;;8.93;4.63;;;;;;;13.14;100.00;100840.56;10419751;28;20397;-77
2023/08/06 16:12:50;;;;;;;7.75;4.40;;;;;;;13.12;100.00;100847.50;10436473;28;20098;-77
2023/08/06 16:17:51;;;;;;;6.03;3.20;;;;;;;13.17;100.00;100859.09;10435491;28;20045;-75
2023/08/06 16:22:52;;;;;;;11.50;4.97;;;;;;;13.19;100.00;100867.91;10422900;28;20041;-77
2023/08/06 16:27:52;;;;;;;8.10;2.08;;;;;;;13.12;100.00;100879.03;10443855;28;20078;-76
2023/08/06 16:32:53;;;;;;;5.93;2.90;;;;;;;13.03;100.00;100881.31;10410604;28;20036;-76
2023/08/06 16:37:53;;;;;;;8.73;2.85;;;;;;;12.95;100.00;100894.19;10445196;28;20068;-76
2023/08/06 16:42:54;;;;;;;6.38;3.08;;;;;;;12.90;100.00;100899.25;10446319;28;20407;-77
2023/08/06 16:47:54;;;;;;;6.03;1.88;;;;;;;12.84;100.00;100912.13;10428960;28;20124;-76
2023/08/06 16:52:56;;;;;;;5.57;2.15;;;;;;;12.76;100.00;100911.84;10438752;28;20124;-75
2023/08/06 16:57:57;;;;;;;2.88;1.08;;;;;;;12.67;100.00;100922.00;10419542;28;20119;-75
2023/08/06 17:02:57;;;;;;;5.05;1.27;;;;;;;12.48;100.00;100928.22;10443108;28;20043;-76
2023/08/06 17:07:58;;;;;;;8.85;1.95;;;;;;;12.35;100.00;100945.19;10426861;28;20576;-77
2023/08/06 17:12:59;;;;;;;9.27;2.53;;;;;;;12.29;100.00;100945.81;10444668;28;20043;-75
2023/08/06 17:18:00;;;;;;;6.93;1.30;;;;;;;12.22;100.00;100959.53;10440826;28;20428;-75
2023/08/06 17:23:00;;;;;;;12.43;1.85;;;;;;;12.23;100.00;100966.56;10439345;28;20056;-76
2023/08/06 17:28:03;;;;;;;4.20;1.50;;;;;;;12.33;100.00;100970.50;10445782;28;20557;-76
2023/08/06 17:33:03;;;;;;;;;;;;;;;12.31;100.00;100980.91;10418111;28;20488;-76
2023/08/06 17:38:04;;;;;;;6.25;1.67;;;;;;;12.28;100.00;100986.03;10445548;28;19983;-76
2023/08/06 17:43:04;;;;;;;7.10;2.05;;;;;;;12.22;100.00;100993.63;10442230;28;20056;-77
2023/08/06 17:48:05;;;;;;;6.63;1.67;;;;;;;11.89;100.00;100988.66;10434356;28;20036;-76
2023/08/06 17:53:05;;;;;;;5.45;1.85;;;;;;;11.81;100.00;100996.22;10436079;28;20144;-75
2023/08/06 17:58:06;;;;;;;8.30;2.88;;;;;;;11.85;100.00;101005.09;10430341;28;20044;-75
2023/08/06 18:03:07;;;;;;;8.98;2.00;;;;;;;11.95;100.00;101006.44;10436045;28;20041;-75
2023/08/06 18:08:07;;;;;;;8.80;2.70;;;;;;;11.99;100.00;101013.59;10444034;28;20072;-76
2023/08/06 18:13:09;;;;;;;8.70;2.10;;;;;;;11.99;100.00;101024.97;10486370;27;20044;-75
2023/08/06 18:18:09;;;;;;;12.67;3.60;;;;;;;12.00;100.00;101020.69;10482130;28;20047;-76
2023/08/06 18:23:10;;;;;;;7.05;2.45;;;;;;;11.97;100.00;101024.00;10464117;28;20063;-76
2023/08/06 18:28:10;;;;;;;16.88;3.30;;;;;;;11.97;100.00;101024.00;10478195;28;20044;-77
2023/08/06 18:33:11;;;;;;;6.60;3.25;;;;;;;11.95;100.00;101025.66;10482708;28;20504;-78
2023/08/06 18:38:12;;;;;;;17.90;5.55;;;;;;;11.96;100.00;101032.72;10440068;28;20112;-76
2023/08/06 18:43:12;;;;;;;8.77;3.63;;;;;;;11.96;100.00;101034.44;10472576;28;20090;-76
2023/08/06 18:48:13;;;;;;;7.55;3.67;;;;;;;11.93;100.00;101035.19;10442206;28;20128;-78
2023/08/06 18:53:13;;;;;;;13.07;2.85;;;;;;;11.86;100.00;101047.16;10441070;28;20059;-77
2023/08/06 18:58:14;;;;;;;14.95;2.40;;;;;;;11.80;100.00;101044.25;10439764;28;20043;-76
2023/08/06 19:03:14;;;;;;;15.45;3.30;;;;;;;11.73;100.00;101045.69;10456103;28;20037;-76
2023/08/06 19:08:15;;;;;;;12.07;3.88;;;;;;;11.64;100.00;101047.00;10493833;28;20048;-77
2023/08/06 19:13:15;;;;;;;5.75;2.33;;;;;;;11.58;100.00;101052.84;10462591;28;20043;-78
2023/08/06 19:18:16;;;;;;;8.30;2.92;;;;;;;11.51;100.00;101059.53;10474829;28;20499;-78
2023/08/06 19:23:18;;;;;;;8.40;2.90;;;;;;;11.45;100.00;101064.47;10422266;28;20043;-78
2023/08/06 19:28:20;;;;;;;9.63;2.30;;;;;;;11.39;100.00;101064.19;10455536;28;20036;-76
2023/08/06 19:33:21;;;;;;;13.27;3.70;;;;;;;11.36;100.00;101070.16;10414609;28;20045;-78
2023/08/06 19:38:23;;;;;;;10.48;2.47;;;;;;;11.31;100.00;101077.81;10424856;28;20082;-79
2023/08/06 19:43:23;;;;;;;13.63;3.10;;;;;;;11.33;100.00;101079.63;10448588;28;20037;-75
2023/08/06 19:48:24;;;;;;;17.17;5.30;;;;;;;11.33;100.00;101087.47;10427861;28;20053;-78
2023/08/06 19:53:25;;;;;;;10.95;3.97;;;;;;;11.37;100.00;101089.44;10436184;28;20047;-79
2023/08/06 19:58:26;;;;;;;8.90;3.93;;;;;;;11.38;100.00;101083.38;10437879;28;20432;-75
2023/08/06 20:03:28;;;;;;;11.02;4.47;;;;;;;11.38;100.00;101085.97;10412213;28;20072;-76
2023/08/06 20:08:31;;;;;;;15.55;5.30;;;;;;;11.39;100.00;101093.03;10469292;28;20048;-79
2023/08/06 20:13:31;;;;;;;;;;;;;;;11.44;100.00;101092.41;10461365;28;20040;-78
2023/08/06 20:18:32;;;;;;;11.40;4.32;;;;;;;11.43;100.00;101102.81;10480762;28;20368;-76
2023/08/06 20:23:33;;;;;;;15.07;4.93;;;;;;;11.37;100.00;101105.16;10483071;28;20056;-76
2023/08/06 20:28:34;;;;;;;11.57;3.83;;;;;;;11.32;100.00;101099.66;10468813;28;20033;-76
2023/08/06 20:33:37;;;;;;;15.25;4.07;;;;;;;11.29;100.00;101089.03;10477543;28;20408;-78
2023/08/06 20:38:38;;;;;;;14.50;2.97;;;;;;;11.18;100.00;101095.47;10477847;28;20433;-78
2023/08/06 20:43:39;;;;;;;10.05;2.75;;;;;;;11.05;100.00;101094.88;10478204;28;20033;-77
2023/08/06 20:48:39;;;;;;;6.80;3.25;;;;;;;11.09;100.00;101102.06;10462461;28;20035;-77
2023/08/06 20:53:40;;;;;;;8.82;3.95;;;;;;;11.14;100.00;101111.06;10434865;28;20072;-76
2023/08/06 20:58:40;;;;;;;8.73;3.75;;;;;;;11.16;100.00;101104.16;10420958;28;20067;-76
2023/08/06 21:03:41;;;;;;;13.48;2.92;;;;;;;11.15;100.00;101110.22;10435142;28;20053;-76
2023/08/06 21:08:41;;;;;;;9.68;2.40;;;;;;;11.14;100.00;101113.66;10467253;28;21240;-75
2023/08/06 21:13:43;;;;;;;8.40;2.58;;;;;;;11.10;100.00;101108.22;10488374;28;20041;-76
2023/08/06 21:18:43;;;;;;;8.77;2.35;;;;;;;11.10;100.00;101111.72;10487572;28;20067;-76
2023/08/06 21:23:44;;;;;;;8.90;3.33;;;;;;;11.05;100.00;101102.75;10489729;28;20045;-75
2023/08/06 21:28:45;;;;;;;10.75;3.63;;;;;;;11.09;100.00;101111.66;10513618;27;20037;-76
2023/08/06 21:33:45;;;;;;;9.88;2.72;;;;;;;11.10;100.00;101108.22;10468912;28;20029;-76
2023/08/06 21:38:46;;;;;;;10.88;3.60;;;;;;;11.07;100.00;101108.06;10444469;28;20036;-76
2023/08/06 21:43:48;;;;;;;17.67;4.35;;;;;;;11.10;100.00;101105.59;10429086;28;20047;-75
2023/08/06 21:48:49;;;;;;;10.27;2.85;;;;;;;11.10;100.00;101100.38;10428530;28;20447;-76
2023/08/06 21:53:49;;;;;;;13.63;4.05;;;;;;;11.12;100.00;101094.34;10436912;28;20041;-76
2023/08/06 21:58:52;;;;;;;12.25;3.58;;;;;;;11.14;100.00;101099.69;10434195;28;20508;-76
2023/08/06 22:03:53;;;;;;;11.27;3.83;;;;;;;11.16;100.00;101096.31;10421997;28;20045;-76
2023/08/06 22:08:53;;;;;;;13.63;5.15;;;;;;;11.20;100.00;101089.50;10416888;28;20045;-76
2023/08/06 22:13:59;;;;;;;10.52;3.88;;;;;;;11.20;100.00;101107.84;10442420;28;20086;-76
2023/08/06 22:19:00;;;;;;;12.02;4.45;;;;;;;11.23;100.00;101105.38;10441633;28;20064;-75
2023/08/06 22:24:01;;;;;;;7.55;3.33;;;;;;;11.19;100.00;101107.75;10448841;28;20125;-75
2023/08/06 22:29:01;;;;;;;10.40;3.78;;;;;;;11.18;100.00;101100.72;10443559;28;20041;-75
2023/08/06 22:34:02;;;;;;;16.88;4.82;;;;;;;11.20;100.00;101106.94;10438739;28;20527;-77
2023/08/06 22:39:02;;;;;;;18.08;3.47;;;;;;;11.24;100.00;101106.25;10425850;28;20078;-75
2023/08/06 22:44:03;;;;;;;10.02;3.80;;;;;;;11.27;100.00;101109.94;10441571;28;20033;-75
2023/08/06 22:49:04;;;;;;;17.40;4.80;;;;;;;11.28;100.00;101118.69;10424915;28;20044;-75